sensor_id;sensor_type;location;lat;lon;timestamp;pressure;altitude;pressure_sealevel;temperature;humidity
65872;BME280;52653;50.080;21.992;2023-02-04T00:01:25;98119.84;;;1.83;96.52
65872;BME280;52653;50.080;21.992;2023-02-04T00:04:18;98115.34;;;1.83;96.54
65872;BME280;52653;50.080;21.992;2023-02-04T00:07:10;98113.96;;;1.83;96.53
65872;BME280;52653;50.080;21.992;2023-02-04T00:10:05;98111.55;;;1.84;96.45
65872;BME280;52653;50.080;21.992;2023-02-04T00:12:58;98117.77;;;1.84;96.47
65872;BME280;52653;50.080;21.992;2023-02-04T00:15:51;98121.58;;;1.84;96.31
65872;BME280;52653;50.080;21.992;2023-02-04T00:18:36;98129.02;;;1.84;96.36
65872;BME280;52653;50.080;21.992;2023-02-04T00:21:29;98123.65;;;1.84;96.46
65872;BME280;52653;50.080;21.992;2023-02-04T00:24:16;98121.41;;;1.84;96.37
65872;BME280;52653;50.080;21.992;2023-02-04T00:27:09;98114.66;;;1.84;96.26
65872;BME280;52653;50.080;21.992;2023-02-04T00:30:02;98113.11;;;1.85;96.33
65872;BME280;52653;50.080;21.992;2023-02-04T00:32:57;98111.20;;;1.84;96.23
65872;BME280;52653;50.080;21.992;2023-02-04T00:35:50;98120.89;;;1.85;96.12
65872;BME280;52653;50.080;21.992;2023-02-04T00:38:37;98121.41;;;1.85;96.08
65872;BME280;52653;50.080;21.992;2023-02-04T00:41:30;98123.14;;;1.85;96.01
65872;BME280;52653;50.080;21.992;2023-02-04T00:44:23;98115.88;;;1.85;96.03
65872;BME280;52653;50.080;21.992;2023-02-04T00:47:16;98122.61;;;1.85;96.08
65872;BME280;52653;50.080;21.992;2023-02-04T00:50:10;98117.44;;;1.86;96.10
65872;BME280;52653;50.080;21.992;2023-02-04T00:53:02;98116.75;;;1.85;95.99
65872;BME280;52653;50.080;21.992;2023-02-04T00:55:55;98118.99;;;1.85;96.12
65872;BME280;52653;50.080;21.992;2023-02-04T00:58:48;98121.75;;;1.85;96.17
65872;BME280;52653;50.080;21.992;2023-02-04T01:01:41;98118.82;;;1.86;96.08
65872;BME280;52653;50.080;21.992;2023-02-04T01:04:35;98118.13;;;1.86;96.06
65872;BME280;52653;50.080;21.992;2023-02-04T01:07:28;98118.13;;;1.86;96.04
65872;BME280;52653;50.080;21.992;2023-02-04T01:10:20;98107.07;;;1.86;96.17
65872;BME280;52653;50.080;21.992;2023-02-04T01:13:13;98107.76;;;1.86;96.09
65872;BME280;52653;50.080;21.992;2023-02-04T01:15:59;98107.77;;;1.87;96.05
65872;BME280;52653;50.080;21.992;2023-02-04T01:18:53;98110.19;;;1.87;96.04
65872;BME280;52653;50.080;21.992;2023-02-04T01:21:39;98107.42;;;1.89;96.13
65872;BME280;52653;50.080;21.992;2023-02-04T01:24:32;98103.11;;;1.90;95.87
65872;BME280;52653;50.080;21.992;2023-02-04T01:27:25;98102.13;;;1.91;95.96
65872;BME280;52653;50.080;21.992;2023-02-04T01:30:13;98098.33;;;1.92;95.81
65872;BME280;52653;50.080;21.992;2023-02-04T01:33:07;98099.19;;;1.92;95.79
65872;BME280;52653;50.080;21.992;2023-02-04T01:36:00;98102.12;;;1.92;95.91
65872;BME280;52653;50.080;21.992;2023-02-04T01:38:54;98096.77;;;1.92;95.95
65872;BME280;52653;50.080;21.992;2023-02-04T01:41:40;98097.11;;;1.92;96.16
65872;BME280;52653;50.080;21.992;2023-02-04T01:44:34;98096.95;;;1.93;96.25
65872;BME280;52653;50.080;21.992;2023-02-04T01:47:27;98091.23;;;1.91;96.41
65872;BME280;52653;50.080;21.992;2023-02-04T01:50:21;98088.27;;;1.91;96.60
65872;BME280;52653;50.080;21.992;2023-02-04T01:53:15;98089.64;;;1.90;96.37
65872;BME280;52653;50.080;21.992;2023-02-04T01:56:13;98086.33;;;1.88;96.66
65872;BME280;52653;50.080;21.992;2023-02-04T01:59:13;98085.48;;;1.88;96.82
65872;BME280;52653;50.080;21.992;2023-02-04T02:02:38;98084.43;;;1.87;96.74
65872;BME280;52653;50.080;21.992;2023-02-04T02:05:36;98080.10;;;1.86;96.96
65872;BME280;52653;50.080;21.992;2023-02-04T02:08:31;98075.78;;;1.85;97.27
65872;BME280;52653;50.080;21.992;2023-02-04T02:11:24;98078.20;;;1.86;97.01
65872;BME280;52653;50.080;21.992;2023-02-04T02:14:18;98079.59;;;1.87;96.86
65872;BME280;52653;50.080;21.992;2023-02-04T02:17:11;98076.30;;;1.86;96.87
65872;BME280;52653;50.080;21.992;2023-02-04T02:20:06;98075.44;;;1.87;97.02
65872;BME280;52653;50.080;21.992;2023-02-04T02:23:05;98078.89;;;1.87;96.89
65872;BME280;52653;50.080;21.992;2023-02-04T02:26:05;98082.37;;;1.88;97.01
65872;BME280;52653;50.080;21.992;2023-02-04T02:28:51;98082.19;;;1.89;96.99
65872;BME280;52653;50.080;21.992;2023-02-04T02:31:44;98081.51;;;1.89;97.05
65872;BME280;52653;50.080;21.992;2023-02-04T02:34:39;98088.08;;;1.90;97.02
65872;BME280;52653;50.080;21.992;2023-02-04T02:37:35;98087.90;;;1.89;96.89
65872;BME280;52653;50.080;21.992;2023-02-04T02:40:28;98086.52;;;1.90;97.15
65872;BME280;52653;50.080;21.992;2023-02-04T02:43:25;98090.67;;;1.90;97.09
65872;BME280;52653;50.080;21.992;2023-02-04T02:46:19;98091.70;;;1.90;97.08
65872;BME280;52653;50.080;21.992;2023-02-04T02:49:15;98097.92;;;1.88;96.94
65872;BME280;52653;50.080;21.992;2023-02-04T02:52:10;98094.11;;;1.87;97.04
65872;BME280;52653;50.080;21.992;2023-02-04T02:55:04;98095.66;;;1.86;96.98
65872;BME280;52653;50.080;21.992;2023-02-04T02:57:57;98104.13;;;1.85;96.82
65872;BME280;52653;50.080;21.992;2023-02-04T03:00:45;98109.31;;;1.85;96.93
65872;BME280;52653;50.080;21.992;2023-02-04T03:03:40;98107.91;;;1.84;96.88
65872;BME280;52653;50.080;21.992;2023-02-04T03:06:37;98109.83;;;1.84;96.83
65872;BME280;52653;50.080;21.992;2023-02-04T03:09:31;98108.64;;;1.87;96.78
65872;BME280;52653;50.080;21.992;2023-02-04T03:12:25;98113.88;;;1.92;96.72
65872;BME280;52653;50.080;21.992;2023-02-04T03:15:18;98118.90;;;1.93;96.52
65872;BME280;52653;50.080;21.992;2023-02-04T03:18:14;98118.91;;;1.95;96.31
65872;BME280;52653;50.080;21.992;2023-02-04T03:21:08;98125.14;;;1.96;96.03
65872;BME280;52653;50.080;21.992;2023-02-04T03:23:54;98126.69;;;1.93;95.97
65872;BME280;52653;50.080;21.992;2023-02-04T03:26:47;98128.37;;;1.90;95.64
65872;BME280;52653;50.080;21.992;2023-02-04T03:29:44;98130.24;;;1.87;95.54
65872;BME280;52653;50.080;21.992;2023-02-04T03:32:37;98132.45;;;1.83;95.42
65872;BME280;52653;50.080;21.992;2023-02-04T03:35:26;98140.73;;;1.80;95.62
65872;BME280;52653;50.080;21.992;2023-02-04T03:38:19;98135.81;;;1.72;95.66
65872;BME280;52653;50.080;21.992;2023-02-04T03:41:14;98143.74;;;1.69;95.65
65872;BME280;52653;50.080;21.992;2023-02-04T03:44:07;98153.90;;;1.66;95.63
65872;BME280;52653;50.080;21.992;2023-02-04T03:47:01;98162.48;;;1.61;95.66
65872;BME280;52653;50.080;21.992;2023-02-04T03:49:54;98172.41;;;1.53;95.53
65872;BME280;52653;50.080;21.992;2023-02-04T03:52:37;98180.99;;;1.49;95.66
65872;BME280;52653;50.080;21.992;2023-02-04T03:55:24;98184.91;;;1.42;95.78
65872;BME280;52653;50.080;21.992;2023-02-04T03:58:17;98191.71;;;1.35;95.54
65872;BME280;52653;50.080;21.992;2023-02-04T04:01:10;98194.07;;;1.29;95.24
65872;BME280;52653;50.080;21.992;2023-02-04T04:04:03;98199.85;;;1.23;95.04
65872;BME280;52653;50.080;21.992;2023-02-04T04:06:49;98209.66;;;1.19;94.84
65872;BME280;52653;50.080;21.992;2023-02-04T04:09:35;98217.92;;;1.15;95.02
65872;BME280;52653;50.080;21.992;2023-02-04T04:12:29;98221.80;;;1.11;94.94
65872;BME280;52653;50.080;21.992;2023-02-04T04:15:22;98220.73;;;1.07;94.84
65872;BME280;52653;50.080;21.992;2023-02-04T04:18:17;98227.89;;;1.01;94.61
65872;BME280;52653;50.080;21.992;2023-02-04T04:21:10;98233.14;;;0.94;94.75
65872;BME280;52653;50.080;21.992;2023-02-04T04:24:04;98238.73;;;0.87;94.77
65872;BME280;52653;50.080;21.992;2023-02-04T04:26:57;98246.58;;;0.81;94.97
65872;BME280;52653;50.080;21.992;2023-02-04T04:29:49;98257.02;;;0.76;95.05
65872;BME280;52653;50.080;21.992;2023-02-04T04:32:32;98262.80;;;0.71;95.22
65872;BME280;52653;50.080;21.992;2023-02-04T04:35:25;98268.48;;;0.68;95.33
65872;BME280;52653;50.080;21.992;2023-02-04T04:38:11;98273.20;;;0.62;95.43
65872;BME280;52653;50.080;21.992;2023-02-04T04:41:04;98280.20;;;0.58;95.59
65872;BME280;52653;50.080;21.992;2023-02-04T04:43:57;98292.44;;;0.56;95.61
65872;BME280;52653;50.080;21.992;2023-02-04T04:46:50;98304.30;;;0.54;95.43
65872;BME280;52653;50.080;21.992;2023-02-04T04:49:43;98312.48;;;0.49;95.14
65872;BME280;52653;50.080;21.992;2023-02-04T04:52:35;98324.61;;;0.42;94.72
65872;BME280;52653;50.080;21.992;2023-02-04T04:55:28;98331.23;;;0.37;94.69
65872;BME280;52653;50.080;21.992;2023-02-04T04:58:21;98347.86;;;0.31;94.55
65872;BME280;52653;50.080;21.992;2023-02-04T05:01:13;98364.13;;;0.25;94.52
65872;BME280;52653;50.080;21.992;2023-02-04T05:04:00;98375.77;;;0.21;94.77
65872;BME280;52653;50.080;21.992;2023-02-04T05:06:46;98392.61;;;0.17;95.03
65872;BME280;52653;50.080;21.992;2023-02-04T05:09:39;98409.70;;;0.11;94.65
65872;BME280;52653;50.080;21.992;2023-02-04T05:12:32;98414.82;;;0.00;93.73
65872;BME280;52653;50.080;21.992;2023-02-04T05:15:25;98432.89;;;-0.09;92.99
65872;BME280;52653;50.080;21.992;2023-02-04T05:18:18;98440.85;;;-0.16;93.20
65872;BME280;52653;50.080;21.992;2023-02-04T05:21:11;98456.13;;;-0.26;93.14
65872;BME280;52653;50.080;21.992;2023-02-04T05:24:03;98474.02;;;-0.35;93.37
65872;BME280;52653;50.080;21.992;2023-02-04T05:26:57;98492.27;;;-0.42;93.74
65872;BME280;52653;50.080;21.992;2023-02-04T05:29:50;98504.67;;;-0.49;93.70
65872;BME280;52653;50.080;21.992;2023-02-04T05:32:43;98522.90;;;-0.57;93.52
65872;BME280;52653;50.080;21.992;2023-02-04T05:35:36;98537.02;;;-0.64;93.60
65872;BME280;52653;50.080;21.992;2023-02-04T05:38:29;98557.16;;;-0.71;93.70
65872;BME280;52653;50.080;21.992;2023-02-04T05:41:22;98575.55;;;-0.79;93.90
65872;BME280;52653;50.080;21.992;2023-02-04T05:44:15;98581.31;;;-0.88;94.12
65872;BME280;52653;50.080;21.992;2023-02-04T05:47:08;98590.60;;;-0.95;94.27
65872;BME280;52653;50.080;21.992;2023-02-04T05:50:04;98597.17;;;-1.00;94.39
65872;BME280;52653;50.080;21.992;2023-02-04T05:52:57;98630.74;;;-1.05;94.67
65872;BME280;52653;50.080;21.992;2023-02-04T05:55:50;98636.67;;;-1.09;94.77
65872;BME280;52653;50.080;21.992;2023-02-04T05:58:43;98651.58;;;-1.11;94.90
65872;BME280;52653;50.080;21.992;2023-02-04T06:01:37;98675.20;;;-1.15;94.60
65872;BME280;52653;50.080;21.992;2023-02-04T06:04:30;98689.35;;;-1.19;94.17
65872;BME280;52653;50.080;21.992;2023-02-04T06:07:24;98710.06;;;-1.23;93.90
65872;BME280;52653;50.080;21.992;2023-02-04T06:10:09;98721.39;;;-1.24;94.21
65872;BME280;52653;50.080;21.992;2023-02-04T06:13:03;98738.60;;;-1.24;94.53
65872;BME280;52653;50.080;21.992;2023-02-04T06:15:57;98762.88;;;-1.23;94.72
65872;BME280;52653;50.080;21.992;2023-02-04T06:18:38;98771.32;;;-1.23;94.18
65872;BME280;52653;50.080;21.992;2023-02-04T06:21:31;98786.23;;;-1.25;93.78
65872;BME280;52653;50.080;21.992;2023-02-04T06:24:25;98801.30;;;-1.27;93.84
65872;BME280;52653;50.080;21.992;2023-02-04T06:27:17;98817.39;;;-1.29;93.56
65872;BME280;52653;50.080;21.992;2023-02-04T06:33:06;98847.92;;;-1.31;93.20
65872;BME280;52653;50.080;21.992;2023-02-04T06:35:59;98861.84;;;-1.32;92.84
65872;BME280;52653;50.080;21.992;2023-02-04T06:38:52;98873.60;;;-1.30;92.68
65872;BME280;52653;50.080;21.992;2023-02-04T06:41:45;98884.67;;;-1.28;92.37
65872;BME280;52653;50.080;21.992;2023-02-04T06:44:38;98898.52;;;-1.26;91.89
65872;BME280;52653;50.080;21.992;2023-02-04T06:47:31;98921.45;;;-1.25;91.67
65872;BME280;52653;50.080;21.992;2023-02-04T06:50:25;98926.45;;;-1.24;91.33
65872;BME280;52653;50.080;21.992;2023-02-04T06:53:17;98949.54;;;-1.23;91.43
65872;BME280;52653;50.080;21.992;2023-02-04T06:56:10;98962.23;;;-1.24;91.66
65872;BME280;52653;50.080;21.992;2023-02-04T06:58:56;98973.05;;;-1.25;91.53
65872;BME280;52653;50.080;21.992;2023-02-04T07:01:50;98978.73;;;-1.25;91.51
65872;BME280;52653;50.080;21.992;2023-02-04T07:04:43;99008.04;;;-1.23;91.57
65872;BME280;52653;50.080;21.992;2023-02-04T07:07:29;99019.36;;;-1.24;91.23
65872;BME280;52653;50.080;21.992;2023-02-04T07:10:22;99035.95;;;-1.22;91.37
65872;BME280;52653;50.080;21.992;2023-02-04T07:13:16;99044.27;;;-1.20;91.30
65872;BME280;52653;50.080;21.992;2023-02-04T07:16:09;99060.39;;;-1.16;90.71
65872;BME280;52653;50.080;21.992;2023-02-04T07:19:05;99084.73;;;-1.14;89.97
65872;BME280;52653;50.080;21.992;2023-02-04T07:21:59;99090.98;;;-1.13;88.61
65872;BME280;52653;50.080;21.992;2023-02-04T07:24:53;99109.61;;;-1.11;87.99
65872;BME280;52653;50.080;21.992;2023-02-04T07:27:40;99124.95;;;-1.11;87.51
65872;BME280;52653;50.080;21.992;2023-02-04T07:30:33;99134.85;;;-1.09;86.99
65872;BME280;52653;50.080;21.992;2023-02-04T07:33:28;99149.16;;;-1.08;86.53
65872;BME280;52653;50.080;21.992;2023-02-04T07:36:21;99169.99;;;-1.07;86.22
65872;BME280;52653;50.080;21.992;2023-02-04T07:39:07;99179.34;;;-1.06;85.89
65872;BME280;52653;50.080;21.992;2023-02-04T07:42:00;99198.67;;;-1.04;85.70
65872;BME280;52653;50.080;21.992;2023-02-04T07:44:53;99211.56;;;-1.05;85.44
65872;BME280;52653;50.080;21.992;2023-02-04T07:47:46;99226.30;;;-1.06;85.92
65872;BME280;52653;50.080;21.992;2023-02-04T07:50:39;99231.52;;;-1.05;85.70
65872;BME280;52653;50.080;21.992;2023-02-04T07:53:33;99244.98;;;-1.04;84.84
65872;BME280;52653;50.080;21.992;2023-02-04T07:56:26;99261.52;;;-1.04;84.20
65872;BME280;52653;50.080;21.992;2023-02-04T07:59:19;99277.90;;;-1.03;83.95
65872;BME280;52653;50.080;21.992;2023-02-04T08:02:12;99295.90;;;-1.05;83.73
65872;BME280;52653;50.080;21.992;2023-02-04T08:04:56;99305.23;;;-1.00;84.52
65872;BME280;52653;50.080;21.992;2023-02-04T08:07:39;99321.05;;;-0.96;83.72
65872;BME280;52653;50.080;21.992;2023-02-04T08:10:33;99333.54;;;-0.93;83.53
65872;BME280;52653;50.080;21.992;2023-02-04T08:13:27;99346.56;;;-0.95;84.12
65872;BME280;52653;50.080;21.992;2023-02-04T08:16:04;99353.63;;;-0.95;84.42
65872;BME280;52653;50.080;21.992;2023-02-04T08:18:56;99367.83;;;-0.93;83.96
65872;BME280;52653;50.080;21.992;2023-02-04T08:21:44;99373.95;;;-0.90;83.62
65872;BME280;52653;50.080;21.992;2023-02-04T08:24:37;99390.83;;;-0.86;83.29
65872;BME280;52653;50.080;21.992;2023-02-04T08:27:30;99412.52;;;-0.86;82.43
65872;BME280;52653;50.080;21.992;2023-02-04T08:30:23;99421.60;;;-0.83;82.90
65872;BME280;52653;50.080;21.992;2023-02-04T08:33:15;99431.63;;;-0.73;82.63
65872;BME280;52653;50.080;21.992;2023-02-04T08:36:09;99441.45;;;-0.69;81.67
65872;BME280;52653;50.080;21.992;2023-02-04T08:39:03;99448.55;;;-0.55;81.77
65872;BME280;52653;50.080;21.992;2023-02-04T08:41:49;99455.18;;;-0.44;80.69
65872;BME280;52653;50.080;21.992;2023-02-04T08:44:43;99460.77;;;-0.34;80.21
65872;BME280;52653;50.080;21.992;2023-02-04T08:47:37;99466.13;;;-0.29;78.85
65872;BME280;52653;50.080;21.992;2023-02-04T08:50:30;99477.95;;;-0.22;78.86
65872;BME280;52653;50.080;21.992;2023-02-04T08:53:24;99486.85;;;-0.11;79.60
65872;BME280;52653;50.080;21.992;2023-02-04T08:56:17;99495.66;;;-0.01;78.78
65872;BME280;52653;50.080;21.992;2023-02-04T08:59:10;99502.79;;;0.00;78.37
65872;BME280;52653;50.080;21.992;2023-02-04T09:02:03;99511.66;;;0.07;78.63
65872;BME280;52653;50.080;21.992;2023-02-04T09:04:50;99518.11;;;0.13;77.22
65872;BME280;52653;50.080;21.992;2023-02-04T09:07:44;99527.27;;;0.14;76.64
65872;BME280;52653;50.080;21.992;2023-02-04T09:10:37;99535.18;;;0.22;76.49
65872;BME280;52653;50.080;21.992;2023-02-04T09:13:32;99546.82;;;0.28;76.12
65872;BME280;52653;50.080;21.992;2023-02-04T09:16:15;99560.54;;;0.31;75.37
65872;BME280;52653;50.080;21.992;2023-02-04T09:19:12;99576.80;;;0.19;74.55
65872;BME280;52653;50.080;21.992;2023-02-04T09:22:07;99573.79;;;0.13;74.85
65872;BME280;52653;50.080;21.992;2023-02-04T09:24:53;99576.03;;;0.21;75.05
65872;BME280;52653;50.080;21.992;2023-02-04T09:27:37;99589.13;;;0.16;73.55
65872;BME280;52653;50.080;21.992;2023-02-04T09:30:30;99597.61;;;0.13;73.36
65872;BME280;52653;50.080;21.992;2023-02-04T09:33:25;99601.50;;;0.20;73.25
65872;BME280;52653;50.080;21.992;2023-02-04T09:36:11;99610.38;;;0.18;72.90
65872;BME280;52653;50.080;21.992;2023-02-04T09:38:49;99613.89;;;0.19;73.31
65872;BME280;52653;50.080;21.992;2023-02-04T09:41:35;99618.20;;;0.19;72.59
65872;BME280;52653;50.080;21.992;2023-02-04T09:44:24;99625.56;;;0.22;72.63
65872;BME280;52653;50.080;21.992;2023-02-04T09:47:13;99622.25;;;0.21;71.67
65872;BME280;52653;50.080;21.992;2023-02-04T09:50:11;99628.12;;;0.21;71.70
65872;BME280;52653;50.080;21.992;2023-02-04T09:53:10;99631.23;;;0.30;70.89
65872;BME280;52653;50.080;21.992;2023-02-04T09:55:57;99640.39;;;0.57;70.51
65872;BME280;52653;50.080;21.992;2023-02-04T09:58:50;99644.00;;;0.79;70.03
65872;BME280;52653;50.080;21.992;2023-02-04T10:01:35;99652.45;;;1.06;69.05
65872;BME280;52653;50.080;21.992;2023-02-04T10:04:24;99657.39;;;1.32;67.91
65872;BME280;52653;50.080;21.992;2023-02-04T10:07:18;99667.23;;;1.56;67.16
65872;BME280;52653;50.080;21.992;2023-02-04T10:10:15;99669.91;;;1.64;65.96
65872;BME280;52653;50.080;21.992;2023-02-04T10:13:09;99673.16;;;1.53;64.86
65872;BME280;52653;50.080;21.992;2023-02-04T10:16:13;99675.98;;;1.30;64.59
65872;BME280;52653;50.080;21.992;2023-02-04T10:19:10;99690.83;;;0.98;65.28
65872;BME280;52653;50.080;21.992;2023-02-04T10:22:11;99690.45;;;0.70;66.78
65872;BME280;52653;50.080;21.992;2023-02-04T10:25:12;99696.86;;;0.41;66.69
65872;BME280;52653;50.080;21.992;2023-02-04T10:28:06;99711.56;;;0.16;68.16
65872;BME280;52653;50.080;21.992;2023-02-04T10:30:42;99715.40;;;0.01;69.43
65872;BME280;52653;50.080;21.992;2023-02-04T10:33:37;99725.76;;;-0.07;70.32
65872;BME280;52653;50.080;21.992;2023-02-04T10:36:30;99726.92;;;-0.04;71.17
65872;BME280;52653;50.080;21.992;2023-02-04T10:39:24;99728.80;;;-0.00;71.36
65872;BME280;52653;50.080;21.992;2023-02-04T10:42:23;99730.31;;;0.15;70.83
65872;BME280;52653;50.080;21.992;2023-02-04T10:45:23;99737.77;;;0.29;70.42
65872;BME280;52653;50.080;21.992;2023-02-04T10:48:18;99740.40;;;0.42;70.46
65872;BME280;52653;50.080;21.992;2023-02-04T10:51:04;99742.73;;;0.56;70.21
65872;BME280;52653;50.080;21.992;2023-02-04T10:53:59;99749.72;;;0.76;68.89
65872;BME280;52653;50.080;21.992;2023-02-04T10:56:53;99755.36;;;0.88;67.16
65872;BME280;52653;50.080;21.992;2023-02-04T10:59:41;99750.84;;;1.05;67.65
65872;BME280;52653;50.080;21.992;2023-02-04T11:02:39;99754.15;;;1.28;67.59
65872;BME280;52653;50.080;21.992;2023-02-04T11:05:35;99759.67;;;1.46;66.67
65872;BME280;52653;50.080;21.992;2023-02-04T11:08:31;99756.69;;;1.78;67.14
65872;BME280;52653;50.080;21.992;2023-02-04T11:11:26;99762.74;;;1.92;65.62
65872;BME280;52653;50.080;21.992;2023-02-04T11:14:28;99768.09;;;1.91;64.32
65872;BME280;52653;50.080;21.992;2023-02-04T11:17:27;99778.63;;;1.96;64.47
65872;BME280;52653;50.080;21.992;2023-02-04T11:20:32;99781.63;;;2.02;63.05
65872;BME280;52653;50.080;21.992;2023-02-04T11:23:35;99789.89;;;1.87;63.48
65872;BME280;52653;50.080;21.992;2023-02-04T11:26:34;99793.78;;;1.80;64.52
65872;BME280;52653;50.080;21.992;2023-02-04T11:29:29;99793.56;;;1.69;65.08
65872;BME280;52653;50.080;21.992;2023-02-04T11:32:31;99796.17;;;1.65;66.26
65872;BME280;52653;50.080;21.992;2023-02-04T11:35:27;99800.58;;;1.67;67.09
65872;BME280;52653;50.080;21.992;2023-02-04T11:38:25;99802.98;;;1.62;66.60
65872;BME280;52653;50.080;21.992;2023-02-04T11:41:20;99802.56;;;1.60;66.90
65872;BME280;52653;50.080;21.992;2023-02-04T11:44:09;99801.29;;;1.59;66.30
65872;BME280;52653;50.080;21.992;2023-02-04T11:46:58;99809.52;;;1.61;66.60
65872;BME280;52653;50.080;21.992;2023-02-04T11:49:56;99812.36;;;1.54;65.78
65872;BME280;52653;50.080;21.992;2023-02-04T11:52:49;99822.17;;;1.49;65.57
65872;BME280;52653;50.080;21.992;2023-02-04T11:55:46;99819.74;;;1.39;65.35
65872;BME280;52653;50.080;21.992;2023-02-04T11:58:39;99824.77;;;1.27;65.98
65872;BME280;52653;50.080;21.992;2023-02-04T12:01:29;99825.77;;;1.04;66.80
65872;BME280;52653;50.080;21.992;2023-02-04T12:04:25;99830.72;;;0.89;67.94
65872;BME280;52653;50.080;21.992;2023-02-04T12:07:22;99835.45;;;0.66;69.15
65872;BME280;52653;50.080;21.992;2023-02-04T12:10:24;99832.42;;;0.47;70.14
65872;BME280;52653;50.080;21.992;2023-02-04T12:13:22;99833.83;;;0.44;71.11
65872;BME280;52653;50.080;21.992;2023-02-04T12:16:15;99840.21;;;0.48;71.31
65872;BME280;52653;50.080;21.992;2023-02-04T12:19:09;99838.63;;;0.55;70.69
65872;BME280;52653;50.080;21.992;2023-02-04T12:22:01;99839.73;;;0.62;70.02
65872;BME280;52653;50.080;21.992;2023-02-04T12:24:55;99841.21;;;0.64;70.69
65872;BME280;52653;50.080;21.992;2023-02-04T12:27:48;99842.38;;;0.54;71.32
65872;BME280;52653;50.080;21.992;2023-02-04T12:30:34;99840.10;;;0.37;71.65
65872;BME280;52653;50.080;21.992;2023-02-04T12:33:27;99844.15;;;0.19;72.21
65872;BME280;52653;50.080;21.992;2023-02-04T12:36:13;99855.02;;;0.08;73.78
65872;BME280;52653;50.080;21.992;2023-02-04T12:39:06;99855.91;;;-0.11;74.97
65872;BME280;52653;50.080;21.992;2023-02-04T12:41:52;99852.79;;;-0.23;75.77
65872;BME280;52653;50.080;21.992;2023-02-04T12:44:46;99858.54;;;-0.29;76.42
65872;BME280;52653;50.080;21.992;2023-02-04T12:47:39;99863.27;;;-0.31;76.23
65872;BME280;52653;50.080;21.992;2023-02-04T12:50:34;99869.10;;;-0.32;75.62
65872;BME280;52653;50.080;21.992;2023-02-04T12:53:27;99875.50;;;-0.31;73.30
65872;BME280;52653;50.080;21.992;2023-02-04T12:56:18;99878.58;;;-0.32;71.31
65872;BME280;52653;50.080;21.992;2023-02-04T12:59:13;99884.59;;;-0.28;70.89
65872;BME280;52653;50.080;21.992;2023-02-04T13:02:07;99887.23;;;-0.20;70.57
65872;BME280;52653;50.080;21.992;2023-02-04T13:05:01;99888.58;;;-0.16;70.36
65872;BME280;52653;50.080;21.992;2023-02-04T13:07:54;99892.10;;;-0.19;69.75
65872;BME280;52653;50.080;21.992;2023-02-04T13:10:47;99896.50;;;-0.28;68.10
65872;BME280;52653;50.080;21.992;2023-02-04T13:13:41;99898.04;;;-0.40;67.92
65872;BME280;52653;50.080;21.992;2023-02-04T13:16:34;99901.99;;;-0.47;68.44
65872;BME280;52653;50.080;21.992;2023-02-04T13:19:28;99903.98;;;-0.63;67.52
65872;BME280;52653;50.080;21.992;2023-02-04T13:22:21;99920.06;;;-0.83;66.94
65872;BME280;52653;50.080;21.992;2023-02-04T13:25:08;99917.77;;;-0.98;67.14
65872;BME280;52653;50.080;21.992;2023-02-04T13:27:54;99923.17;;;-1.07;67.95
65872;BME280;52653;50.080;21.992;2023-02-04T13:30:47;99920.98;;;-1.10;68.18
65872;BME280;52653;50.080;21.992;2023-02-04T13:33:40;99928.15;;;-1.01;67.75
65872;BME280;52653;50.080;21.992;2023-02-04T13:36:33;99925.59;;;-0.86;66.91
65872;BME280;52653;50.080;21.992;2023-02-04T13:39:26;99928.79;;;-0.63;66.76
65872;BME280;52653;50.080;21.992;2023-02-04T13:42:19;99933.11;;;-0.44;65.80
65872;BME280;52653;50.080;21.992;2023-02-04T13:45:11;99934.65;;;-0.19;65.43
65872;BME280;52653;50.080;21.992;2023-02-04T13:47:56;99935.61;;;0.01;63.78
65872;BME280;52653;50.080;21.992;2023-02-04T13:50:49;99939.55;;;0.24;62.84
65872;BME280;52653;50.080;21.992;2023-02-04T13:53:42;99942.66;;;0.43;60.74
65872;BME280;52653;50.080;21.992;2023-02-04T13:56:36;99949.25;;;0.59;59.81
65872;BME280;52653;50.080;21.992;2023-02-04T13:59:29;99955.96;;;0.59;58.83
65872;BME280;52653;50.080;21.992;2023-02-04T14:02:23;99961.55;;;0.64;59.70
65872;BME280;52653;50.080;21.992;2023-02-04T14:05:16;99967.98;;;0.69;59.28
65872;BME280;52653;50.080;21.992;2023-02-04T14:08:09;99976.41;;;0.60;56.62
65872;BME280;52653;50.080;21.992;2023-02-04T14:11:03;99977.61;;;0.38;55.24
65872;BME280;52653;50.080;21.992;2023-02-04T14:13:57;99980.71;;;0.26;55.92
65872;BME280;52653;50.080;21.992;2023-02-04T14:16:50;99990.39;;;0.08;56.00
65872;BME280;52653;50.080;21.992;2023-02-04T14:19:43;99992.13;;;-0.14;56.07
65872;BME280;52653;50.080;21.992;2023-02-04T14:22:29;99996.38;;;-0.34;56.30
65872;BME280;52653;50.080;21.992;2023-02-04T14:25:21;99995.16;;;-0.47;57.56
65872;BME280;52653;50.080;21.992;2023-02-04T14:28:13;100005.83;;;-0.62;58.23
65872;BME280;52653;50.080;21.992;2023-02-04T14:30:49;100011.63;;;-0.70;59.48
65872;BME280;52653;50.080;21.992;2023-02-04T14:33:34;100012.83;;;-0.74;60.32
65872;BME280;52653;50.080;21.992;2023-02-04T14:36:27;100018.53;;;-0.84;60.06
65872;BME280;52653;50.080;21.992;2023-02-04T14:39:20;100024.58;;;-0.90;61.08
65872;BME280;52653;50.080;21.992;2023-02-04T14:42:13;100028.22;;;-0.97;61.47
65872;BME280;52653;50.080;21.992;2023-02-04T14:45:06;100033.09;;;-0.99;62.20
65872;BME280;52653;50.080;21.992;2023-02-04T14:47:59;100034.73;;;-1.07;62.67
65872;BME280;52653;50.080;21.992;2023-02-04T14:50:38;100040.35;;;-1.14;63.39
65872;BME280;52653;50.080;21.992;2023-02-04T14:53:30;100038.64;;;-1.22;64.64
65872;BME280;52653;50.080;21.992;2023-02-04T14:56:23;100041.47;;;-1.23;65.33
65872;BME280;52653;50.080;21.992;2023-02-04T14:59:17;100045.39;;;-1.30;67.54
65872;BME280;52653;50.080;21.992;2023-02-04T15:02:10;100056.05;;;-1.40;69.06
65872;BME280;52653;50.080;21.992;2023-02-04T15:04:56;100060.77;;;-1.52;70.03
65872;BME280;52653;50.080;21.992;2023-02-04T15:07:49;100061.40;;;-1.56;70.50
65872;BME280;52653;50.080;21.992;2023-02-04T15:10:43;100069.75;;;-1.61;71.49